Bookmark and Share
Track history (hours):
 

Kohju

Last reported at 2014-Apr-16 04:30 UTC. Time now 2014-Apr-16 05:19 UTC.
Position N 57°40' E 010°47'.

Length 289 m; draft 17 m.

Type: Cargo ship. MMSI: 357349000.

NotesDate/timePositionNaut miles runAvg speedWind from/ knotsBaromVisibWave heightAir tempDewpointWater temp
2014-Apr-16 04:30N 57°40' E 010°47'0 0.0
2014-Apr-16 03:33N 57°40' E 010°47'0 0.0
2014-Apr-16 02:30N 57°40' E 010°47'0 0.0
2014-Apr-16 01:33N 57°40' E 010°47'0 0.0
2014-Apr-16 00:33N 57°40' E 010°47'0 0.0
2014-Apr-15 23:33N 57°40' E 010°47'0 0.0
2014-Apr-15 22:30N 57°40' E 010°47'0 0.0
2014-Apr-15 21:33N 57°40' E 010°47'0 0.1
2014-Apr-15 20:33N 57°40' E 010°47'5 4.6
2014-Apr-15 19:33N 57°45' E 010°45'8 7.7
2014-Apr-15 18:33N 57°47' E 010°31'1212.0
2014-Apr-15 17:33N 57°45' E 010°09'2711.8
2014-Apr-15 15:15N 57°42' E 009°19'86 9.9
2014-Apr-15 06:32N 56°54' E 007°05'325 9.0
2014-Apr-13 18:33N 52°08' E 002°41'2210.9
2014-Apr-13 16:31N 51°46' E 002°36'1111.9
2014-Apr-13 15:33N 51°38' E 002°23'1312.6
2014-Apr-13 14:33N 51°29' E 002°10'1312.8
2014-Apr-13 13:33N 51°19' E 001°57'1313.3
2014-Apr-13 12:33N 51°08' E 001°44'1414.0
2014-Apr-13 11:33N 50°57' E 001°30'1513.7
2014-Apr-13 10:30N 50°44' E 001°21'2412.5
2014-Apr-13 08:32N 50°29' E 000°50'1313.1
2014-Apr-13 07:33N 50°25' E 000°31'6512.3
2014-Apr-13 02:17N 50°08' W 001°08'47 9.7
2014-Apr-12 21:27N 49°56' W 002°18'1312.4
2014-Apr-12 20:26N 49°53' W 002°37'  
2014-Apr-08 14:24N 38°54' W 025°07'911.0
2014-Apr-08 13:33N 38°48' W 025°16'1111.0
2014-Apr-08 12:33N 38°41' W 025°27'1111.2
2014-Apr-08 11:33N 38°34' W 025°38'1111.2
2014-Apr-08 10:33N 38°27' W 025°49'1111.0
2014-Apr-08 09:33N 38°20' W 025°60'1111.2
2014-Apr-08 08:34N 38°13' W 026°11'1111.0
2014-Apr-08 07:33N 38°06' W 026°21'1110.9
2014-Apr-08 06:33N 37°59' W 026°32'1110.6
2014-Apr-08 05:33N 37°52' W 026°42'1110.9
2014-Apr-08 04:33N 37°46' W 026°53'1111.1
2014-Apr-08 03:33N 37°39' W 027°05'1111.3
2014-Apr-08 02:33N 37°32' W 027°16'1111.5
2014-Apr-08 01:33N 37°25' W 027°28'1411.3
2014-Apr-08 00:17N 37°17' W 027°42'2611.5
2014-Apr-07 22:04N 37°01' W 028°07'510.0
2014-Apr-07 21:32N 36°58' W 028°13'4511.1
2014-Apr-07 17:31N 36°31' W 028°57'1211.0
2014-Apr-07 16:26N 36°24' W 029°09'910.7
2014-Apr-07 15:33N 36°18' W 029°18'  

Dump ship's entire track history

sailing weather and tide predictions

Kohju — H3XI — position and weather